Time;durP1;ratioP1;P1;durP2;ratioP2;P2;SDS_P1;SDS_P2;PMS_P1;PMS_P2;Temp;Humidity;BMP_temperature;BMP_pressure;BME280_temperature;BME280_humidity;BME280_pressure;Samples;Min_cycle;Max_cycle;Signal;HPM_P1;HPM_P2
2022/08/07 00:00:33;;;;;;;10.70;6.70;;;13.50;99.90;;;;;;5088034;28;20672;-67
2022/08/07 00:02:59;;;;;;;11.48;7.07;;;13.50;99.90;;;;;;5102180;28;20515;-68
2022/08/07 00:05:26;;;;;;;11.80;6.47;;;13.50;99.90;;;;;;5108516;28;20061;-67
2022/08/07 00:07:53;;;;;;;11.50;6.82;;;13.40;99.90;;;;;;5109069;28;20046;-68
2022/08/07 00:10:20;;;;;;;10.07;6.65;;;13.30;99.90;;;;;;5108291;28;20035;-68
2022/08/07 00:12:46;;;;;;;11.40;7.22;;;13.30;99.90;;;;;;5107082;28;20393;-68
2022/08/07 00:15:11;;;;;;;13.52;7.50;;;13.20;99.90;;;;;;5104189;28;20026;-68
2022/08/07 00:17:37;;;;;;;11.85;6.43;;;13.20;99.90;;;;;;5091685;28;20774;-68
2022/08/07 00:20:05;;;;;;;11.82;7.30;;;13.20;99.90;;;;;;5107315;28;20425;-68
2022/08/07 00:22:31;;;;;;;11.18;7.68;;;13.20;99.90;;;;;;5091790;28;20549;-69
2022/08/07 00:24:56;;;;;;;10.48;6.90;;;13.20;99.90;;;;;;5092270;28;20111;-68
2022/08/07 00:27:22;;;;;;;9.98;6.25;;;13.20;99.90;;;;;;5107305;28;20402;-68
2022/08/07 00:29:48;;;;;;;10.10;6.13;;;13.20;99.90;;;;;;5107478;28;20032;-68
2022/08/07 00:32:14;;;;;;;8.82;6.03;;;13.30;99.90;;;;;;5091969;28;20027;-68
2022/08/07 00:34:41;;;;;;;9.10;6.28;;;13.30;99.90;;;;;;5091653;28;20043;-68
2022/08/07 00:37:07;;;;;;;11.57;6.15;;;13.30;99.90;;;;;;5091439;28;20024;-68
2022/08/07 00:39:36;;;;;;;10.60;6.60;;;13.20;99.90;;;;;;5091788;28;20028;-68
2022/08/07 00:42:02;;;;;;;10.43;6.73;;;13.20;99.90;;;;;;5090315;28;20028;-68
2022/08/07 00:44:28;;;;;;;11.07;5.95;;;13.20;99.90;;;;;;5107112;28;20314;-67
2022/08/07 00:46:54;;;;;;;13.48;6.93;;;13.10;99.90;;;;;;5090072;28;20031;-68
2022/08/07 00:49:20;;;;;;;12.98;7.20;;;13.10;99.90;;;;;;5091351;28;20785;-68
2022/08/07 00:51:45;;;;;;;10.07;6.50;;;13.00;99.90;;;;;;5091134;28;20036;-68
2022/08/07 00:54:13;;;;;;;10.13;6.88;;;13.00;99.90;;;;;;5091226;28;20111;-68
2022/08/07 00:56:40;;;;;;;9.85;6.40;;;13.00;99.90;;;;;;5091164;28;20056;-68
2022/08/07 00:59:05;;;;;;;9.63;7.03;;;13.00;99.90;;;;;;5090004;28;20040;-68
2022/08/07 01:01:32;;;;;;;9.40;6.20;;;13.10;99.90;;;;;;5091637;28;20024;-68
2022/08/07 01:03:57;;;;;;;10.40;6.28;;;13.00;99.90;;;;;;5090618;28;20035;-68
2022/08/07 01:06:24;;;;;;;10.23;6.28;;;13.00;99.90;;;;;;5090618;28;20028;-68
2022/08/07 01:08:50;;;;;;;10.32;6.25;;;12.90;99.90;;;;;;5101249;28;20036;-68
2022/08/07 01:11:16;;;;;;;11.25;6.50;;;12.90;99.90;;;;;;5111328;28;20401;-67
2022/08/07 01:13:42;;;;;;;11.50;6.63;;;12.70;99.90;;;;;;5111029;28;20028;-68
2022/08/07 01:16:08;;;;;;;13.15;7.03;;;12.70;99.90;;;;;;5107316;28;20051;-68
2022/08/07 01:18:35;;;;;;;9.75;6.28;;;12.60;99.90;;;;;;5110577;28;20038;-68
2022/08/07 01:21:07;;;;;;;11.48;6.35;;;12.60;99.90;;;;;;5109742;28;20027;-68
2022/08/07 01:23:33;;;;;;;11.23;6.75;;;12.60;99.90;;;;;;5109738;28;20461;-68
2022/08/07 01:26:00;;;;;;;9.82;6.63;;;12.50;99.90;;;;;;5110800;28;20066;-69
2022/08/07 01:28:26;;;;;;;10.88;6.38;;;12.50;99.90;;;;;;5110523;28;20062;-68
2022/08/07 01:30:54;;;;;;;11.48;6.93;;;12.50;99.90;;;;;;5109608;28;20062;-68
2022/08/07 01:33:20;;;;;;;10.57;6.22;;;12.40;99.90;;;;;;5109085;28;20031;-68
2022/08/07 01:35:46;;;;;;;10.50;6.82;;;12.40;99.90;;;;;;5109036;28;20500;-68
2022/08/07 01:38:12;;;;;;;11.27;6.93;;;12.50;99.90;;;;;;5110712;28;20081;-68
2022/08/07 01:40:39;;;;;;;11.35;6.40;;;12.40;99.90;;;;;;5109389;28;20031;-68
2022/08/07 01:43:06;;;;;;;11.32;7.05;;;12.40;99.90;;;;;;5109242;28;20047;-67
2022/08/07 01:45:32;;;;;;;10.90;7.50;;;12.40;99.90;;;;;;5110619;28;20059;-68
2022/08/07 01:47:58;;;;;;;13.50;7.80;;;12.40;99.90;;;;;;5110508;27;20070;-68
2022/08/07 01:50:26;;;;;;;11.27;7.18;;;12.40;99.90;;;;;;5108759;28;20053;-68
2022/08/07 01:52:54;;;;;;;10.52;7.25;;;12.50;99.90;;;;;;5110350;28;20023;-68
2022/08/07 01:55:25;;;;;;;11.38;7.78;;;12.50;99.90;;;;;;5110628;28;20063;-68
2022/08/07 01:57:54;;;;;;;11.35;7.50;;;12.50;99.90;;;;;;5110329;28;20039;-67
2022/08/07 02:00:20;;;;;;;11.52;7.85;;;12.50;99.90;;;;;;5109995;28;20084;-67
2022/08/07 02:02:51;;;;;;;10.93;7.40;;;12.50;99.90;;;;;;5108715;28;20027;-67
2022/08/07 02:05:24;;;;;;;16.67;8.00;;;12.60;99.90;;;;;;5108294;28;20055;-67
2022/08/07 02:07:52;;;;;;;11.45;7.60;;;12.60;99.90;;;;;;5110306;28;20482;-67
2022/08/07 02:10:23;;;;;;;11.85;8.07;;;12.60;99.90;;;;;;5110299;28;20101;-68
2022/08/07 02:12:50;;;;;;;11.93;8.75;;;12.50;99.90;;;;;;5110069;28;20067;-67
2022/08/07 02:15:21;;;;;;;13.23;8.50;;;12.50;99.90;;;;;;5110026;28;20031;-68
2022/08/07 02:17:48;;;;;;;11.60;8.18;;;12.50;99.90;;;;;;5109977;28;20039;-69
2022/08/07 02:20:16;;;;;;;12.90;8.30;;;12.50;99.90;;;;;;5092576;28;20048;-68
2022/08/07 02:22:42;;;;;;;14.15;8.35;;;12.40;99.90;;;;;;5088171;28;20031;-68
2022/08/07 02:25:10;;;;;;;13.65;8.15;;;12.40;99.90;;;;;;5089536;28;20107;-68
2022/08/07 02:27:37;;;;;;;11.98;8.50;;;12.40;99.90;;;;;;5088153;28;20032;-68
2022/08/07 02:30:05;;;;;;;12.45;8.18;;;12.40;99.90;;;;;;5089382;28;20123;-68
2022/08/07 02:32:31;;;;;;;12.88;8.63;;;12.40;99.90;;;;;;5089172;28;20998;-68
2022/08/07 02:34:58;;;;;;;11.85;8.23;;;12.30;99.90;;;;;;5089265;28;20040;-68
2022/08/07 02:37:26;;;;;;;13.02;8.75;;;12.30;99.90;;;;;;5087940;28;20032;-68
2022/08/07 02:39:53;;;;;;;12.23;8.45;;;12.40;99.90;;;;;;5088451;28;20100;-68
2022/08/07 02:42:19;;;;;;;12.23;8.05;;;12.40;99.90;;;;;;5089143;28;20032;-68
2022/08/07 02:44:48;;;;;;;13.10;8.55;;;12.30;99.90;;;;;;5089207;28;20093;-68
2022/08/07 02:47:16;;;;;;;14.30;8.65;;;12.40;99.90;;;;;;5089333;28;20136;-68
2022/08/07 02:49:43;;;;;;;11.13;7.85;;;12.30;99.90;;;;;;5087518;28;20065;-68
2022/08/07 02:52:14;;;;;;;11.45;8.32;;;12.20;99.90;;;;;;5089102;28;20031;-69
2022/08/07 02:54:40;;;;;;;12.93;8.60;;;12.10;99.90;;;;;;5089194;28;20043;-68
2022/08/07 02:57:10;;;;;;;12.10;8.95;;;12.00;99.90;;;;;;5088900;28;20107;-68
2022/08/07 02:59:37;;;;;;;12.20;8.32;;;11.90;99.90;;;;;;5088665;28;20039;-68
2022/08/07 03:02:04;;;;;;;12.80;7.97;;;11.80;99.90;;;;;;5089512;28;20028;-68
2022/08/07 03:04:30;;;;;;;13.82;8.65;;;11.80;99.90;;;;;;5088605;28;20028;-69
2022/08/07 03:06:58;;;;;;;13.30;8.20;;;11.70;99.90;;;;;;5088696;28;20031;-68
2022/08/07 03:09:25;;;;;;;14.55;7.90;;;11.60;99.90;;;;;;5088650;28;20043;-69
2022/08/07 03:11:51;;;;;;;12.48;8.77;;;11.70;99.90;;;;;;5104308;28;20028;-68
2022/08/07 03:14:17;;;;;;;12.65;7.75;;;11.70;99.90;;;;;;5088660;28;20043;-68
2022/08/07 03:16:44;;;;;;;11.77;8.23;;;11.70;99.90;;;;;;5088440;28;20043;-69
2022/08/07 03:19:10;;;;;;;12.38;8.30;;;11.70;99.90;;;;;;5088676;28;20132;-69
2022/08/07 03:21:36;;;;;;;11.55;7.68;;;11.70;99.90;;;;;;5088747;28;20059;-69
2022/08/07 03:24:02;;;;;;;14.63;8.98;;;11.70;99.90;;;;;;5088636;28;20059;-69
2022/08/07 03:26:31;;;;;;;12.57;8.38;;;11.60;99.90;;;;;;5087067;28;20055;-68
2022/08/07 03:29:00;;;;;;;11.52;8.60;;;11.50;99.90;;;;;;5088636;28;20028;-68
2022/08/07 03:31:26;;;;;;;13.25;8.52;;;11.40;99.90;;;;;;5087056;28;20474;-68
2022/08/07 03:33:59;;;;;;;14.43;7.93;;;11.40;99.90;;;;;;5087117;28;20058;-68
2022/08/07 03:36:26;;;;;;;12.10;7.57;;;11.30;99.90;;;;;;5088518;28;20051;-68
2022/08/07 03:39:00;;;;;;;11.50;8.43;;;11.30;99.90;;;;;;5086766;28;20043;-68
2022/08/07 03:41:29;;;;;;;13.20;7.88;;;11.30;99.90;;;;;;5104069;28;20043;-68
2022/08/07 03:43:55;;;;;;;13.52;7.43;;;11.40;99.90;;;;;;5088362;28;20029;-68
2022/08/07 03:46:22;;;;;;;11.82;7.88;;;11.40;99.90;;;;;;5088499;28;20035;-67
2022/08/07 03:48:49;;;;;;;11.70;7.35;;;11.40;99.90;;;;;;5103887;28;20036;-68
2022/08/07 03:51:15;;;;;;;11.93;7.55;;;11.40;99.90;;;;;;5090219;28;20051;-68
2022/08/07 03:53:41;;;;;;;13.90;7.32;;;11.40;99.90;;;;;;5110987;28;20073;-68
2022/08/07 03:56:09;;;;;;;13.00;8.82;;;11.50;99.90;;;;;;5111416;28;20605;-69
2022/08/07 03:58:35;;;;;;;12.13;7.68;;;11.50;99.90;;;;;;5112845;28;20043;-68
2022/08/07 04:01:03;;;;;;;13.23;7.70;;;11.50;99.90;;;;;;5112579;28;20046;-68
2022/08/07 04:03:28;;;;;;;13.82;8.77;;;11.60;99.90;;;;;;5112619;27;20046;-67
2022/08/07 04:05:54;;;;;;;12.57;8.95;;;11.60;99.90;;;;;;5108364;28;20043;-68
2022/08/07 04:08:20;;;;;;;13.23;8.90;;;11.60;99.90;;;;;;5110994;28;20096;-68
2022/08/07 04:10:50;;;;;;;13.85;8.77;;;11.50;99.90;;;;;;5112690;28;20469;-67
2022/08/07 04:13:17;;;;;;;14.18;8.20;;;11.50;99.90;;;;;;5112758;28;20031;-68
2022/08/07 04:15:44;;;;;;;14.13;9.00;;;11.50;99.90;;;;;;5112397;28;20036;-67
2022/08/07 04:18:13;;;;;;;11.93;7.88;;;11.40;99.90;;;;;;5110979;28;20038;-68
2022/08/07 04:20:40;;;;;;;11.88;8.20;;;11.40;99.90;;;;;;5111060;28;20051;-68
2022/08/07 04:23:06;;;;;;;12.43;8.00;;;11.40;99.90;;;;;;5112621;28;20023;-69
2022/08/07 04:25:33;;;;;;;12.23;8.70;;;11.30;99.90;;;;;;5110947;28;20081;-68
2022/08/07 04:27:59;;;;;;;11.75;8.23;;;11.40;99.90;;;;;;5108835;28;20142;-68
2022/08/07 04:30:25;;;;;;;13.13;8.27;;;11.40;99.90;;;;;;5112144;28;20110;-69
2022/08/07 04:32:51;;;;;;;13.35;7.53;;;11.40;99.90;;;;;;5112125;28;20134;-69
2022/08/07 04:35:16;;;;;;;12.73;8.05;;;11.40;99.90;;;;;;5109472;28;20074;-68
2022/08/07 04:37:42;;;;;;;11.77;7.78;;;11.50;99.90;;;;;;5110455;28;20662;-68
2022/08/07 04:40:08;;;;;;;11.75;7.93;;;11.50;99.90;;;;;;5112016;28;20031;-68
2022/08/07 04:42:34;;;;;;;11.45;8.05;;;11.50;99.90;;;;;;5112125;28;20031;-68
2022/08/07 04:45:01;;;;;;;11.27;8.02;;;11.50;99.90;;;;;;5111690;28;20034;-68
2022/08/07 04:47:55;;;;;;;10.95;7.55;;;11.60;99.90;;;;;;5110330;28;20031;-68
2022/08/07 04:50:23;;;;;;;12.20;7.82;;;11.50;99.90;;;;;;5112157;28;20028;-68
2022/08/07 04:52:58;;;;;;;15.32;8.45;;;11.50;99.90;;;;;;5111717;28;20034;-68
2022/08/07 04:55:38;;;;;;;11.93;8.20;;;11.40;99.90;;;;;;5110233;28;20027;-68
2022/08/07 04:58:13;;;;;;;12.43;7.80;;;11.30;99.90;;;;;;5111822;28;20035;-68
2022/08/07 05:00:56;;;;;;;13.73;8.15;;;11.30;99.90;;;;;;5111864;28;20110;-69
2022/08/07 05:03:39;;;;;;;11.55;7.90;;;11.30;99.90;;;;;;5110895;28;20569;-68
2022/08/07 05:06:12;;;;;;;11.40;7.57;;;11.30;99.90;;;;;;5110184;28;20038;-68
2022/08/07 05:08:58;;;;;;;12.15;8.10;;;11.40;99.90;;;;;;5110008;28;20039;-68
2022/08/07 05:11:31;;;;;;;12.05;8.50;;;11.40;99.90;;;;;;5111998;28;20099;-68
2022/08/07 05:14:18;;;;;;;12.23;8.07;;;11.40;99.90;;;;;;5109870;28;20028;-68
2022/08/07 05:16:46;;;;;;;10.05;7.47;;;11.40;99.90;;;;;;5110192;28;20031;-68
2022/08/07 05:19:19;;;;;;;11.32;8.23;;;11.40;99.90;;;;;;5111028;28;20108;-69
2022/08/07 05:21:53;;;;;;;12.18;7.88;;;11.40;99.90;;;;;;5111607;28;20199;-68
2022/08/07 05:24:19;;;;;;;12.27;8.27;;;11.40;99.90;;;;;;5109931;28;20032;-68
2022/08/07 05:26:48;;;;;;;11.05;7.57;;;11.40;99.90;;;;;;5111341;28;20039;-68
2022/08/07 05:29:16;;;;;;;12.55;7.88;;;11.40;99.90;;;;;;5111018;28;20527;-68
2022/08/07 05:31:43;;;;;;;11.05;7.38;;;11.40;99.90;;;;;;5111235;28;20031;-67
2022/08/07 05:34:12;;;;;;;12.02;7.22;;;11.30;99.90;;;;;;5111170;28;20062;-68
2022/08/07 05:36:41;;;;;;;11.32;7.20;;;11.30;99.90;;;;;;5111096;28;20512;-67
2022/08/07 05:39:09;;;;;;;11.98;7.30;;;11.40;99.90;;;;;;5110977;28;20066;-67
2022/08/07 05:41:35;;;;;;;11.43;7.15;;;11.40;99.90;;;;;;5110657;28;20035;-68
2022/08/07 05:44:00;;;;;;;11.80;7.38;;;11.50;99.90;;;;;;5110537;28;20096;-68
2022/08/07 05:46:26;;;;;;;10.80;7.00;;;11.60;99.90;;;;;;5110780;28;20163;-68
2022/08/07 05:48:53;;;;;;;10.13;7.13;;;11.70;99.90;;;;;;5110617;28;20074;-67
2022/08/07 05:51:19;;;;;;;12.10;7.28;;;11.70;99.90;;;;;;5110939;28;20043;-67
2022/08/07 05:53:46;;;;;;;13.48;8.15;;;11.80;99.90;;;;;;5110624;28;20051;-68
2022/08/07 05:56:14;;;;;;;11.60;7.70;;;11.90;99.90;;;;;;5110467;28;20378;-68
2022/08/07 05:58:41;;;;;;;11.25;7.60;;;12.00;99.90;;;;;;5110490;28;20046;-67
2022/08/07 06:01:10;;;;;;;10.82;7.75;;;12.10;99.90;;;;;;5106529;28;20439;-68
2022/08/07 06:03:38;;;;;;;10.40;7.22;;;12.20;99.90;;;;;;5110044;28;20542;-68
2022/08/07 06:06:05;;;;;;;13.85;7.40;;;12.30;99.90;;;;;;5110499;28;20052;-68
2022/08/07 06:08:32;;;;;;;10.48;7.55;;;12.40;99.90;;;;;;5110514;28;20074;-68
2022/08/07 06:10:58;;;;;;;10.13;6.97;;;12.50;99.90;;;;;;5108686;28;20073;-68
2022/08/07 06:13:24;;;;;;;8.73;6.47;;;12.50;99.90;;;;;;5109103;28;20084;-68
2022/08/07 06:15:50;;;;;;;10.20;6.72;;;12.60;99.90;;;;;;5110308;28;20031;-68
2022/08/07 06:18:17;;;;;;;9.55;6.40;;;12.70;99.90;;;;;;5110046;28;20031;-69
2022/08/07 06:20:44;;;;;;;10.60;6.38;;;12.70;99.90;;;;;;5108750;28;20465;-68
2022/08/07 06:23:10;;;;;;;11.02;6.57;;;12.80;99.90;;;;;;5110202;28;20020;-68
2022/08/07 06:25:39;;;;;;;11.50;7.40;;;12.80;99.90;;;;;;5105635;28;20070;-68
2022/08/07 06:28:06;;;;;;;10.82;6.70;;;12.90;99.90;;;;;;5110063;28;20032;-68
2022/08/07 06:30:33;;;;;;;10.80;5.97;;;13.00;99.90;;;;;;5108504;28;20027;-68
2022/08/07 06:33:00;;;;;;;9.80;6.47;;;13.10;99.90;;;;;;5108642;28;20033;-68
2022/08/07 06:35:26;;;;;;;8.77;6.45;;;13.20;99.90;;;;;;5109887;28;20060;-68
2022/08/07 06:37:51;;;;;;;10.32;5.85;;;13.30;99.90;;;;;;5108285;28;20134;-68
2022/08/07 06:40:18;;;;;;;9.77;5.70;;;13.40;99.90;;;;;;5109583;28;20031;-68
2022/08/07 06:42:46;;;;;;;10.18;5.68;;;13.50;99.90;;;;;;5109779;28;20032;-68
2022/08/07 06:45:14;;;;;;;7.68;5.50;;;13.60;99.90;;;;;;5108212;28;20034;-68
2022/08/07 06:47:40;;;;;;;8.38;5.68;;;13.70;99.90;;;;;;5108150;28;20542;-68
2022/08/07 06:50:07;;;;;;;10.15;5.78;;;13.80;99.90;;;;;;5109788;28;20028;-68
2022/08/07 06:52:36;;;;;;;9.35;5.53;;;13.90;99.90;;;;;;5109754;28;20107;-68
2022/08/07 06:55:10;;;;;;;9.02;5.50;;;14.10;99.90;;;;;;5109270;27;20035;-67
2022/08/07 06:57:37;;;;;;;9.05;5.32;;;14.20;99.90;;;;;;5109377;28;20027;-68
2022/08/07 07:00:04;;;;;;;10.02;5.82;;;14.40;99.90;;;;;;5108133;28;20027;-67
2022/08/07 07:02:31;;;;;;;7.57;5.20;;;14.50;99.90;;;;;;5108001;28;20028;-68
2022/08/07 07:04:57;;;;;;;8.07;5.10;;;14.70;99.90;;;;;;5109415;28;20031;-68
2022/08/07 07:07:23;;;;;;;8.38;5.45;;;14.90;99.90;;;;;;5109094;28;20042;-67
2022/08/07 07:09:49;;;;;;;7.20;5.00;;;15.00;99.90;;;;;;5109271;28;20112;-68
2022/08/07 07:12:21;;;;;;;8.15;4.70;;;15.20;99.90;;;;;;5109227;28;20522;-67
2022/08/07 07:15:25;;;;;;;9.18;4.80;;;15.40;99.90;;;;;;5109366;28;20097;-68
2022/08/07 07:18:21;;;;;;;8.20;4.53;;;15.60;99.90;;;;;;5108935;28;20034;-68
2022/08/07 07:21:00;;;;;;;7.75;4.65;;;15.70;99.90;;;;;;5107693;28;20053;-67
2022/08/07 07:23:28;;;;;;;7.00;3.70;;;16.00;99.90;;;;;;5108989;28;20028;-67
2022/08/07 07:25:57;;;;;;;6.65;3.47;;;16.20;99.90;;;;;;5107052;28;20024;-68
2022/08/07 07:28:36;;;;;;;8.52;3.97;;;16.40;99.90;;;;;;5109143;28;20390;-68
2022/08/07 07:31:18;;;;;;;7.05;3.80;;;16.60;99.90;;;;;;5109126;28;20032;-67
2022/08/07 07:33:47;;;;;;;9.05;3.45;;;16.70;99.90;;;;;;5109133;28;20031;-67
2022/08/07 07:36:13;;;;;;;5.55;3.28;;;16.90;99.90;;;;;;5109075;28;20042;-68
2022/08/07 07:38:40;;;;;;;7.40;3.50;;;17.00;99.90;;;;;;5108571;28;20039;-68
2022/08/07 07:41:08;;;;;;;7.25;3.65;;;17.10;99.90;;;;;;5108824;28;20119;-68
2022/08/07 07:43:38;;;;;;;7.13;3.10;;;17.20;99.90;;;;;;5107503;28;20481;-68
2022/08/07 07:46:06;;;;;;;7.30;3.75;;;17.30;99.90;;;;;;5108668;28;20473;-67
2022/08/07 07:48:34;;;;;;;6.28;3.22;;;17.50;99.90;;;;;;5107451;28;20130;-68
2022/08/07 07:51:01;;;;;;;6.85;3.08;;;17.60;99.90;;;;;;5107400;28;20023;-69
2022/08/07 07:53:29;;;;;;;6.13;3.25;;;17.80;99.90;;;;;;5108604;28;20474;-68
2022/08/07 07:55:58;;;;;;;7.15;3.00;;;17.90;99.90;;;;;;5107421;28;20036;-68
2022/08/07 07:58:38;;;;;;;8.13;3.28;;;18.10;99.90;;;;;;5107361;28;20036;-69
2022/08/07 08:01:05;;;;;;;6.93;3.03;;;18.20;99.90;;;;;;5108945;28;20405;-68
2022/08/07 08:03:34;;;;;;;6.03;2.80;;;18.30;99.90;;;;;;5108680;28;20035;-68
2022/08/07 08:06:00;;;;;;;6.18;2.60;;;18.50;99.90;;;;;;5107332;28;20028;-68
2022/08/07 08:08:29;;;;;;;6.70;3.60;;;18.60;99.90;;;;;;5102431;28;20059;-68
2022/08/07 08:10:56;;;;;;;5.13;2.47;;;18.70;99.90;;;;;;5088184;28;20028;-69
2022/08/07 08:13:25;;;;;;;5.68;2.95;;;18.80;99.90;;;;;;5088521;28;20263;-68
2022/08/07 08:15:51;;;;;;;6.15;3.05;;;19.00;99.90;;;;;;5088288;28;20036;-69
2022/08/07 08:18:21;;;;;;;5.55;2.47;;;19.10;99.90;;;;;;5086724;28;20042;-69
2022/08/07 08:20:47;;;;;;;;;;;19.30;99.90;;;;;;5088479;28;20059;-69
2022/08/07 08:27:03;;;;;;;4.35;2.10;;;19.60;99.90;;;;;;5088306;28;20047;-69
2022/08/07 08:28:53;;;;;;;7.65;2.60;;;19.80;99.90;;;;;;5087929;28;20032;-69
2022/08/07 08:31:32;;;;;;;6.93;2.67;;;20.00;99.90;;;;;;5086877;28;20431;-70
2022/08/07 08:34:02;;;;;;;5.35;2.33;;;20.10;99.90;;;;;;5088239;28;20052;-69
2022/08/07 08:36:30;;;;;;;7.70;2.60;;;20.40;99.90;;;;;;5090344;28;20111;-69
2022/08/07 08:38:59;;;;;;;6.13;2.35;;;20.50;98.50;;;;;;5107122;28;20040;-69
2022/08/07 08:41:45;;;;;;;6.90;2.20;;;20.70;98.20;;;;;;5090493;28;20032;-68
2022/08/07 08:44:35;;;;;;;4.97;1.92;;;20.70;98.60;;;;;;5091583;28;20389;-69
2022/08/07 08:47:25;;;;;;;6.22;1.90;;;20.60;96.10;;;;;;5090272;28;20036;-69
2022/08/07 08:50:05;;;;;;;4.72;2.03;;;20.60;94.50;;;;;;5091719;28;20043;-70
2022/08/07 08:52:45;;;;;;;6.10;1.90;;;20.80;95.90;;;;;;5090214;28;20035;-69
2022/08/07 08:55:24;;;;;;;4.80;2.20;;;21.00;94.30;;;;;;5090098;28;20619;-69
2022/08/07 08:58:01;;;;;;;5.20;2.25;;;21.20;89.10;;;;;;5091314;28;20489;-69
2022/08/07 09:00:31;;;;;;;3.75;2.00;;;21.40;91.00;;;;;;5091617;28;20032;-69
2022/08/07 09:03:09;;;;;;;4.47;2.03;;;21.60;90.20;;;;;;5089908;28;20468;-70
2022/08/07 09:05:56;;;;;;;4.38;2.25;;;21.70;90.00;;;;;;5091060;28;20043;-70
2022/08/07 09:08:54;;;;;;;5.55;2.30;;;21.90;86.80;;;;;;5091418;28;20140;-69
2022/08/07 09:12:15;;;;;;;6.43;2.80;;;22.00;79.40;;;;;;5091261;28;20039;-69
2022/08/07 09:14:57;;;;;;;4.40;2.10;;;21.90;79.20;;;;;;5047859;28;20388;-69
2022/08/07 09:17:39;;;;;;;4.70;2.20;;;21.80;79.00;;;;;;5048062;28;20072;-69
2022/08/07 09:20:10;;;;;;;4.30;2.20;;;21.70;77.40;;;;;;5047704;28;20502;-69
2022/08/07 09:22:55;;;;;;;4.20;2.00;;;21.80;76.90;;;;;;5047949;28;20533;-69
2022/08/07 09:25:29;;;;;;;5.00;2.50;;;21.90;78.00;;;;;;5047852;28;20810;-69
2022/08/07 09:28:06;;;;;;;5.72;2.53;;;22.00;75.50;;;;;;5048144;28;20041;-69
2022/08/07 09:30:56;;;;;;;5.80;2.58;;;22.10;71.70;;;;;;5047704;28;20044;-69
2022/08/07 09:33:27;;;;;;;5.68;2.83;;;22.10;71.10;;;;;;5047786;28;20062;-69
2022/08/07 09:36:00;;;;;;;5.65;2.13;;;22.20;71.90;;;;;;5047725;28;20521;-70
2022/08/07 09:38:55;;;;;;;5.35;2.33;;;22.50;68.40;;;;;;5047791;28;20067;-69
2022/08/07 09:41:42;;;;;;;4.00;2.03;;;22.60;69.50;;;;;;5047457;28;20438;-69
2022/08/07 09:44:35;;;;;;;5.15;2.38;;;22.90;64.20;;;;;;5047825;28;20029;-69
2022/08/07 09:47:37;;;;;;;6.30;2.80;;;22.90;64.30;;;;;;5048714;28;20049;-69
2022/08/07 09:50:43;;;;;;;5.70;2.47;;;22.90;59.80;;;;;;5090346;28;20485;-69
2022/08/07 09:53:10;;;;;;;4.63;2.20;;;22.80;60.20;;;;;;5067236;28;20040;-70
2022/08/07 09:55:41;;;;;;;7.70;2.60;;;22.90;60.40;;;;;;5067490;28;20102;-69
2022/08/07 09:58:54;;;;;;;5.47;2.38;;;22.90;60.30;;;;;;5066939;28;20064;-70
2022/08/07 10:01:41;;;;;;;5.63;2.63;;;23.00;60.00;;;;;;5030076;28;20123;-69
2022/08/07 10:04:37;;;;;;;5.65;2.40;;;23.00;56.70;;;;;;5047010;28;20526;-69
2022/08/07 10:07:21;;;;;;;8.18;2.38;;;23.00;55.50;;;;;;5047066;28;20059;-69
2022/08/07 10:10:01;;;;;;;6.85;2.67;;;23.10;51.20;;;;;;5047196;28;20120;-69
2022/08/07 10:12:51;;;;;;;4.57;2.50;;;23.20;49.80;;;;;;5030420;28;20473;-68
2022/08/07 10:15:24;;;;;;;5.35;2.40;;;23.40;52.00;;;;;;5047119;28;20055;-70
2022/08/07 10:17:59;;;;;;;5.20;2.20;;;23.50;49.90;;;;;;5046644;28;20101;-69
2022/08/07 10:20:31;;;;;;;5.30;2.35;;;23.70;50.10;;;;;;5046821;28;20487;-69
2022/08/07 10:23:15;;;;;;;5.43;2.53;;;23.90;50.00;;;;;;5046907;28;20542;-69
2022/08/07 10:25:51;;;;;;;6.15;2.60;;;24.10;49.60;;;;;;5046599;28;20068;-69
2022/08/07 10:28:35;;;;;;;6.43;2.40;;;24.30;48.00;;;;;;5048829;28;20055;-69
2022/08/07 10:31:35;;;;;;;4.43;2.22;;;24.30;48.40;;;;;;5066418;28;20037;-69
2022/08/07 10:34:16;;;;;;;3.83;2.13;;;24.40;47.50;;;;;;5066433;28;20379;-69
2022/08/07 10:37:19;;;;;;;5.20;2.60;;;24.40;47.10;;;;;;5089612;28;20035;-69
2022/08/07 10:39:58;;;;;;;4.80;2.45;;;24.40;45.30;;;;;;5088186;28;20054;-68
2022/08/07 10:42:31;;;;;;;4.97;2.28;;;24.30;45.20;;;;;;5090078;28;20111;-70
2022/08/07 10:45:07;;;;;;;4.78;2.20;;;24.40;46.30;;;;;;5090995;28;20034;-68
2022/08/07 10:47:46;;;;;;;5.97;2.50;;;24.60;46.80;;;;;;5087975;28;20123;-70
2022/08/07 10:50:26;;;;;;;4.87;2.10;;;24.80;47.20;;;;;;5087876;28;20063;-68
2022/08/07 10:53:08;;;;;;;4.63;2.15;;;25.00;45.30;;;;;;5088140;28;20035;-68
2022/08/07 10:55:43;;;;;;;7.70;2.30;;;25.20;45.90;;;;;;5089133;28;20406;-67
2022/08/07 10:58:19;;;;;;;6.15;2.33;;;25.10;46.50;;;;;;5089064;28;20044;-69
2022/08/07 11:00:54;;;;;;;6.05;2.30;;;25.10;45.20;;;;;;5086686;28;20080;-68
2022/08/07 11:03:40;;;;;;;4.78;2.28;;;25.10;46.70;;;;;;5088958;28;20035;-68
2022/08/07 11:06:40;;;;;;;6.03;2.30;;;25.10;55.10;;;;;;5089064;28;20127;-69
2022/08/07 11:09:15;;;;;;;5.53;2.63;;;25.10;58.90;;;;;;5088857;28;20034;-68
2022/08/07 11:11:47;;;;;;;4.22;2.20;;;24.80;59.70;;;;;;5089246;28;20032;-67
2022/08/07 11:14:22;;;;;;;6.13;2.80;;;25.00;61.70;;;;;;5088990;28;20070;-67
2022/08/07 11:16:55;;;;;;;5.15;2.08;;;25.10;61.10;;;;;;5089070;28;20039;-69
2022/08/07 11:19:49;;;;;;;5.75;2.20;;;25.10;61.90;;;;;;5088490;28;20055;-68
2022/08/07 11:22:27;;;;;;;4.68;2.20;;;25.30;60.60;;;;;;5087334;28;20051;-67
2022/08/07 11:24:59;;;;;;;7.22;2.40;;;25.40;60.00;;;;;;5087511;28;20036;-68
2022/08/07 11:27:58;;;;;;;4.03;2.53;;;25.70;59.30;;;;;;5088751;28;20035;-69
2022/08/07 11:30:31;;;;;;;4.53;2.20;;;25.70;58.50;;;;;;5088758;28;20072;-69
2022/08/07 11:33:08;;;;;;;5.25;2.20;;;25.90;56.90;;;;;;5088827;28;20068;-69
2022/08/07 11:36:05;;;;;;;4.72;2.08;;;26.00;57.30;;;;;;5089157;28;20398;-69
2022/08/07 11:38:48;;;;;;;7.30;2.50;;;26.20;57.70;;;;;;5088775;28;20040;-70
2022/08/07 11:41:16;;;;;;;4.07;2.05;;;26.50;56.20;;;;;;5089020;28;20055;-70
2022/08/07 11:44:05;;;;;;;7.13;2.20;;;26.60;56.10;;;;;;5104285;28;20024;-68
2022/08/07 11:46:57;;;;;;;5.72;2.10;;;26.70;54.00;;;;;;5089282;28;20039;-69
2022/08/07 11:49:31;;;;;;;6.43;2.35;;;26.90;53.50;;;;;;5088658;28;20036;-69
2022/08/07 11:52:15;;;;;;;3.97;1.98;;;27.60;52.10;;;;;;5087295;28;20032;-68
2022/08/07 11:54:52;;;;;;;4.65;2.08;;;29.00;49.20;;;;;;5087141;28;20390;-69
2022/08/07 11:57:27;;;;;;;5.85;2.28;;;29.50;47.80;;;;;;5088709;28;20032;-69
2022/08/07 12:00:17;;;;;;;5.32;2.17;;;28.90;48.60;;;;;;5088199;28;20123;-69
2022/08/07 12:03:13;;;;;;;5.90;2.30;;;28.40;48.60;;;;;;5088500;28;20485;-69
2022/08/07 12:05:51;;;;;;;6.30;2.45;;;28.30;49.40;;;;;;5087152;28;20287;-70
2022/08/07 12:08:25;;;;;;;7.38;2.42;;;28.00;48.50;;;;;;5088422;28;20122;-68
2022/08/07 12:10:58;;;;;;;4.43;2.42;;;27.50;49.90;;;;;;5089420;28;20024;-68
2022/08/07 12:13:50;;;;;;;5.70;2.67;;;27.20;51.10;;;;;;5092177;28;20060;-69
2022/08/07 12:16:27;;;;;;;4.70;2.08;;;27.00;50.30;;;;;;5092583;28;20028;-68
2022/08/07 12:18:59;;;;;;;5.95;2.33;;;27.40;51.20;;;;;;5092026;28;20142;-68
2022/08/07 12:21:41;;;;;;;3.78;2.03;;;27.80;50.70;;;;;;5092079;28;20020;-69
2022/08/07 12:24:24;;;;;;;6.18;2.40;;;27.70;50.30;;;;;;5092172;28;20028;-70
2022/08/07 12:27:00;;;;;;;4.50;2.22;;;27.30;49.90;;;;;;5092069;28;20061;-69
2022/08/07 12:29:52;;;;;;;4.72;2.40;;;26.90;51.50;;;;;;5091944;28;20043;-68
2022/08/07 12:32:39;;;;;;;5.40;2.50;;;26.90;51.70;;;;;;5092083;28;20024;-69
2022/08/07 12:35:09;;;;;;;5.80;2.35;;;27.10;50.90;;;;;;5090696;28;20497;-69
2022/08/07 12:37:38;;;;;;;5.03;2.40;;;27.70;49.70;;;;;;5090475;28;20024;-70
2022/08/07 12:40:06;;;;;;;4.72;2.65;;;28.10;48.60;;;;;;5091957;28;20509;-69
2022/08/07 12:42:33;;;;;;;5.28;2.40;;;28.50;47.70;;;;;;5090236;28;20072;-68
2022/08/07 12:45:07;;;;;;;4.28;2.35;;;28.30;47.70;;;;;;5090413;28;20202;-70
2022/08/07 12:47:52;;;;;;;4.03;2.30;;;27.80;47.80;;;;;;5091833;28;20035;-69
2022/08/07 12:50:39;;;;;;;4.75;2.30;;;27.30;48.10;;;;;;5091961;28;20032;-69
2022/08/07 12:53:32;;;;;;;5.57;2.55;;;26.80;49.30;;;;;;5094310;28;20024;-69
2022/08/07 12:56:11;;;;;;;5.07;2.60;;;26.40;51.00;;;;;;5091659;28;20598;-69
2022/08/07 12:58:40;;;;;;;4.93;2.15;;;26.20;51.40;;;;;;5091419;28;20067;-69
2022/08/07 13:01:12;;;;;;;5.65;2.40;;;26.00;51.70;;;;;;5091557;28;20101;-68
2022/08/07 13:03:58;;;;;;;4.93;2.13;;;25.90;51.50;;;;;;5091242;28;20111;-70
2022/08/07 13:06:51;;;;;;;4.15;2.17;;;25.80;52.60;;;;;;5090047;28;20039;-69
2022/08/07 13:09:33;;;;;;;4.68;2.30;;;25.80;52.40;;;;;;5091497;28;20490;-70
2022/08/07 13:12:18;;;;;;;5.57;2.10;;;25.90;51.80;;;;;;5091002;28;20036;-69
2022/08/07 13:14:53;;;;;;;5.72;2.35;;;26.00;52.40;;;;;;5091234;28;20028;-68